Tiempo atmosférico en la estación meteorológica de Tijarafe, Santa Cruz de Tenerife (733 m.)



Fecha
DESCASC
Temp. máxima en grados centígrados (hora)
DESCASC
Temp. mínima en grados centígrados (hora)
DESCASC
Temp. media en grados centígrados
DESCASC
Racha de viento máxima en m/sg (hora)
DESCASC
Velocidad máxima media en intervalos de 10 minutos(hora)
DESCASC
Precipitaciones diarias en mm
DESCASC
Precipitaciones de 00:00 a 06:00 en mm
DESCASC
Precipitaciones de 06:00 a 12:00 en mm
DESCASC
Precipitaciones de 12:00 a 18:00 en mm
DESCASC
Precipitaciones de 18:00 a 24:00 en mm
DESCASC
23-06-2019 21.9 (16:00) 14.8 (05:30) 18.3 7.5 (18:00) 5 (18:10) 0 0 0 0 0
22-06-2019 18.9 (20:00) 14.4 (07:30) 16.6 7.5 (19:00) 4.72 (18:40) 0 0 0 0 0
21-06-2019 19.7 (12:30) 13.9 (07:50) 16.8 4.72 (12:10) 2.5 (12:20) 0.2 0 0 0 0.2
20-06-2019 20.3 (13:00) 14.1 (00:00) 17.2 5.83 (13:30) 1.94 (01:20) 0 0 0 0 0
19-06-2019 23.8 (15:40) 14.2 (00:00) 19 6.11 (14:30) 3.33 (11:50) 0 0 0 0 0
18-06-2019 21.9 (15:50) 15.9 (00:00) 18.9 8.33 (19:10) 5.28 (18:20) 0 0 0 0 0
17-06-2019 21.9 (15:50) 13.5 (00:00) 17.7 7.5 (18:30) 5 (18:40) 0 0 0 0 0
16-06-2019 20.3 (18:00) 12.2 (00:00) 16.2 5.56 (19:10) 3.61 (19:30) 0 0 0 0 0
15-06-2019 19.5 (18:50) 12.1 (00:00) 15.8 7.78 (20:10) 5.28 (20:20) 0 0 0 0 0
14-06-2019 16.3 (10:00) 12.8 (00:00) 14.5 6.11 (09:50) 2.22 (10:30) 0 0 0 0 0
13-06-2019 17.2 (11:50) 13.5 (00:00) 15.4 5.28 (12:20) 1.67 (13:30) 1.2 0 0 0.4 0.8
12-06-2019 19.4 (12:30) 14 (00:00) 16.7 6.39 (10:20) 4.17 (10:20) 0.8 0 0 0.8 0
11-06-2019 21.8 (16:00) 13 (00:00) 17.4 6.11 (16:10) 3.33 (04:50) 0.6 0 0 0 0.6
10-06-2019 22.1 (16:40) 12.3 (00:00) 17.2 10.28 (11:10) 6.94 (08:00) 0 0 0 0 0
09-06-2019 21.4 (16:10) 12.1 (00:00) 16.8 9.44 (14:10) 5.83 (14:10) 0 0 0 0 0
08-06-2019 21.9 (18:10) 13.6 (00:00) 17.8 5.56 (21:30) 3.33 (19:00) 0.4 0 0.2 0.2 0
07-06-2019 20 (13:20) 11.9 (00:00) 15.9 4.72 (13:20) 2.22 (14:20) 0 0 0 0 0
06-06-2019 17.1 (11:10) 13.6 (00:00) 15.4 5.83 (12:40) 3.33 (11:40) 0 0 0 0 0
05-06-2019 18.4 (12:20) 14.7 (00:00) 16.5 5.56 (15:20) 3.89 (05:20) 1.2 0 0 1.2 0
04-06-2019 25.1 (14:00) 16.5 (00:00) 20.8 6.94 (19:30) 3.06 (22:30) 0 0 0 0 0
03-06-2019 30.3 (14:30) 21.8 (00:00) 26 5.28 (12:50) 3.33 (02:10) 0 0 0 0 0
02-06-2019 31.3 (17:50) 14.7 (00:00) 23 8.61 (08:50) 4.44 (13:10) 0 0 0 0 0
01-06-2019 21.8 (09:10) 14.2 (00:00) 18 5 (10:20) 2.78 (00:50) 0 0 0 0 0
31-05-2019 22.1 (15:50) 13.3 (00:00) 17.7 5 (15:40) 1.94 (11:20) 0 0 0 0 0
30-05-2019 21.3 (16:40) 12.7 (00:00) 17 7.22 (16:00) 2.5 (16:50) 0 0 0 0 0
29-05-2019 21.4 (15:30) 12.9 (00:00) 17.1 6.39 (00:10) 5.28 (05:50) 0 0 0 0 0
28-05-2019 22.1 (19:20) 14.7 (00:00) 18.4 6.39 (16:50) 4.17 (23:59) 0 0 0 0 0
27-05-2019 23.9 (20:00) 13.8 (00:00) 18.8 5.83 (18:40) 4.72 (05:00) 0 0 0 0 0

Gráficas

Temp. máximas Temp. mínimas Temp. medias Precipitaciones Rachas de viento máximas Velocidades máximas media en intervalos de 10 minutos

Datos horarios

Fecha y hora oficial Temperatura (ºC) Velocidad del viento (km/h) Dirección del viento Racha (km/h) Dirección de racha Precipitación (mm) Presión (hPa) Tendencia (hPa) Humedad (%)
2019-06-25 23:00:00 16.5 0 Calma 5 Este 0 -- -- 86
2019-06-25 22:00:00 16.8 2 Sur 7 Sur 0 -- -- 86
2019-06-25 21:00:00 18.2 2 Sur 11 Sur 0 -- -- 80
2019-06-25 20:00:00 19.4 3 Sudoeste 16 Oeste 0 -- -- 77
2019-06-25 19:00:00 20.2 5 Sudoeste 14 Oeste 0 -- -- 72
2019-06-25 18:00:00 20.6 5 Oeste 19 Sudoeste 0 -- -- 72
2019-06-25 17:00:00 21 6 Oeste 19 Sudoeste 0 -- -- 72
2019-06-25 16:00:00 20.7 5 Noroeste 15 Sudoeste 0 -- -- 73
2019-06-25 15:00:00 19.3 5 Sudoeste 14 Sudoeste 0 -- -- 79
2019-06-25 14:00:00 19.2 3 Noroeste 12 Sudeste 0 -- -- 80
2019-06-25 13:00:00 19.3 5 Noroeste 12 Noroeste 0 -- -- 82
2019-06-25 12:00:00 18.9 2 Noroeste 15 Noroeste 0 -- -- 90
2019-06-25 11:00:00 17.6 8 Noroeste 15 Noroeste 0 -- -- 94
2019-06-25 10:00:00 17.5 4 Nordeste 12 Nordeste 0 -- -- 94
2019-06-25 09:00:00 17.4 0 Calma 6 Norte 0 -- -- 93
2019-06-25 08:00:00 15.9 0 Calma 5 Sudeste 0 -- -- 97
2019-06-25 07:00:00 16.3 0 Calma 9 Sur 0 -- -- 98
2019-06-25 06:00:00 16.5 0 Calma 6 Sudeste 0 -- -- 97
2019-06-25 05:00:00 16.5 4 Nordeste 9 Noroeste 0 -- -- 98
2019-06-25 04:00:00 17 3 Norte 11 Sudeste 0 -- -- 99
2019-06-25 03:00:00 16.9 0 Calma 7 Norte 0 -- -- 98
2019-06-25 02:00:00 16.8 3 Norte 12 Nordeste 0.2 -- -- 98
2019-06-25 01:00:00 16.5 10 Norte 16 Norte 0 -- -- 99
2019-06-25 00:00:00 17 7 Norte 13 Norte 0 -- -- 99
2019-06-24 23:00:00 17.3 10 Norte 19 Norte 0 -- -- 99
2019-06-24 22:00:00 17.7 12 Norte 16 Norte 0.2 -- -- 99
2019-06-24 21:00:00 18.5 10 Norte 14 Norte 0 -- -- 97
2019-06-24 20:00:00 19 8 Norte 20 Norte 0 -- -- 98
2019-06-24 19:00:00 19.2 12 Norte 16 Norte 0.6 -- -- 97
2019-06-24 18:00:00 19.3 7 Noroeste 12 Noroeste 0 -- -- 94
2019-06-24 17:00:00 21 6 Noroeste 19 Noroeste 0 -- -- 83
2019-06-24 16:00:00 22.7 13 Norte 26 Norte 0 -- -- 72
2019-06-24 15:00:00 22.6 12 Norte 19 Norte 0 -- -- 72
2019-06-24 14:00:00 21.4 9 Noroeste 16 Norte 0 -- -- 78
2019-06-24 13:00:00 21 7 Noroeste 17 Noroeste 0 -- -- 81
2019-06-24 12:00:00 20.8 3 Noroeste 10 Noroeste 0 -- -- 76
2019-06-24 11:00:00 20.8 4 Noroeste 10 Noroeste 0 -- -- 77
2019-06-24 10:00:00 19.4 0 Calma 8 Norte 0 -- -- 84
2019-06-24 09:00:00 17.3 7 Nordeste 18 Norte 0 -- -- 89
2019-06-24 08:00:00 15.6 13 Norte 18 Nordeste 0 -- -- 97
2019-06-24 07:00:00 15.6 2 Nordeste 12 Norte 0 -- -- 95
2019-06-24 06:00:00 16.2 9 Nordeste 17 Norte 0 -- -- 87
2019-06-24 05:00:00 16.3 6 Norte 13 Norte 0 -- -- 84
2019-06-24 04:00:00 16 3 Nordeste 11 Sudeste 0 -- -- 89
2019-06-24 03:00:00 15.9 3 Norte 9 Oeste 0 -- -- 94
2019-06-24 02:00:00 16.4 5 Norte 6 Norte 0 -- -- 89
2019-06-24 01:00:00 16.6 0 Calma 9 Nordeste 0 -- -- 88
2019-06-24 00:00:00 16.7 3 Nordeste 8 Nordeste 0 -- -- 83
2019-06-23 23:00:00 16.8 0 Calma 8 Norte 0 -- -- 93
2019-06-23 22:00:00 17.1 7 Nordeste 15 Nordeste 0 -- -- 96
2019-06-23 21:00:00 17.6 10 Norte 19 Nordeste 0 -- -- 96
2019-06-23 20:00:00 17.4 10 Norte 21 Noroeste 0 -- -- 96
2019-06-23 19:00:00 17.4 14 Norte 26 Noroeste 0 -- -- 97
2019-06-23 18:00:00 18.3 18 Norte 27 Noroeste 0 -- -- 95
2019-06-23 17:00:00 18.9 15 Norte 26 Noroeste 0 -- -- 88
2019-06-23 16:00:00 21.9 15 Norte 26 Noroeste 0 -- -- 77
2019-06-23 15:00:00 19.9 13 Norte 24 Norte 0 -- -- 83
2019-06-23 14:00:00 19.8 12 Noroeste 19 Norte 0 -- -- 79
2019-06-23 13:00:00 18.4 9 Norte 14 Norte 0 -- -- 90
2019-06-23 12:00:00 17.3 8 Norte 14 Norte 0 -- -- 95
2019-06-23 11:00:00 17.4 6 Norte 10 Norte 0 -- -- 92
2019-06-23 10:00:00 17.9 3 Norte 6 Norte 0 -- -- 83
2019-06-23 09:00:00 16.9 4 Norte 11 Sudeste 0 -- -- 82
2019-06-23 08:00:00 15.2 0 Calma 6 Nordeste 0 -- -- 88
2019-06-23 07:00:00 15.3 3 Norte 9 Nordeste 0 -- -- 88
2019-06-23 06:00:00 15.1 3 Este 13 Sudeste 0 -- -- 89
2019-06-23 05:00:00 15 3 Sudeste 14 Sudeste 0 -- -- 91
2019-06-23 04:00:00 15.1 5 Sudeste 6 Sudeste 0 -- -- 93
2019-06-23 03:00:00 15.2 0 Calma 7 Sudeste 0 -- -- 94
2019-06-23 02:00:00 15.4 4 Sudeste 15 Sudeste 0 -- -- 95
2019-06-23 01:00:00 15.6 3 Norte 9 Norte 0 -- -- 94
2019-06-23 00:00:00 15.8 3 Norte 9 Este 0 -- -- 95
2019-06-22 23:00:00 16.4 3 Norte 6 Norte -- -- -- 91
2019-06-22 22:00:00 17.2 0 Calma 5 Noroeste 0 -- -- 90
2019-06-22 21:00:00 18.7 5 Noroeste 21 Norte 0 -- -- 82
2019-06-22 20:00:00 18.9 15 Norte 25 Norte 0 -- -- 80
2019-06-22 19:00:00 17.7 16 Norte 27 Norte 0 -- -- 90
2019-06-22 18:00:00 17.6 14 Norte 22 Noroeste 0 -- -- 89
2019-06-22 17:00:00 18.1 5 Noroeste 13 Noroeste 0 -- -- 86
2019-06-22 16:00:00 18.4 3 Noroeste 11 Oeste 0 -- -- 84
2019-06-22 15:00:00 17.9 4 Noroeste 12 Sudoeste 0 -- -- 85
2019-06-22 14:00:00 17.4 3 Norte 11 Noroeste 0 -- -- 87
2019-06-22 13:00:00 17.2 4 Noroeste 14 Noroeste 0 -- -- 86
2019-06-22 12:00:00 17.4 5 Noroeste 11 Noroeste 0 -- -- 86
2019-06-22 11:00:00 17.2 3 Noroeste 14 Noroeste 0 -- -- 88
2019-06-22 10:00:00 17 6 Oeste 12 Oeste 0 -- -- 86
2019-06-22 09:00:00 15.4 3 Nordeste 7 Este 0 -- -- 87
2019-06-22 08:00:00 14.6 0 Calma 6 Sudeste 0 -- -- 95
2019-06-22 07:00:00 14.7 0 Calma 8 Sudeste 0 -- -- 92
2019-06-22 06:00:00 15 0 Calma 5 Norte 0 -- -- 95
2019-06-22 05:00:00 14.9 2 Nordeste 9 Sur 0 -- -- 95
2019-06-22 04:00:00 15.4 0 Calma 4 Oeste 0 -- -- 97
2019-06-22 03:00:00 15.6 0 Calma 6 Nordeste 0 -- -- 96
2019-06-22 02:00:00 15.6 2 Este 5 Nordeste 0 -- -- 96
2019-06-22 01:00:00 15.8 0 Calma 9 Norte 0 -- -- 97
2019-06-22 00:00:00 16.1 3 Norte 5 Norte 0 -- -- 97
2019-06-21 23:00:00 16.2 2 Noroeste 5 Oeste 0 -- -- 97
2019-06-21 22:00:00 16.4 0 Calma 6 Noroeste 0 -- -- 96
2019-06-21 21:00:00 16.7 3 Norte 9 Oeste 0 -- -- 96
2019-06-21 20:00:00 16.7 0 Calma 5 Sudoeste 0.2 -- -- 96
2019-06-21 19:00:00 16.6 2 Noroeste 8 Noroeste 0 -- -- 93
2019-06-21 18:00:00 16.6 3 Oeste 8 Sudoeste 0 -- -- 93
2019-06-21 17:00:00 17.1 0 Calma 9 Sudoeste 0 -- -- 91
2019-06-21 16:00:00 17.3 4 Sudoeste 9 Oeste 0 -- -- 88
2019-06-21 15:00:00 18 3 Noroeste 9 Norte 0 -- -- 81
2019-06-21 14:00:00 17.7 2 Norte 13 Noroeste 0 -- -- 84
2019-06-21 13:00:00 19 6 Noroeste 17 Noroeste 0 -- -- 80
2019-06-21 12:00:00 18 4 Noroeste 16 Noroeste 0 -- -- 85
2019-06-21 11:00:00 18.5 5 Noroeste 15 Sudoeste 0 -- -- 83
2019-06-21 10:00:00 17.9 5 Noroeste 12 Noroeste 0 -- -- 78
2019-06-21 09:00:00 16.3 3 Norte 6 Noroeste 0 -- -- 82
2019-06-21 08:00:00 14.1 0 Calma 4 Noroeste 0 -- -- 94
2019-06-21 07:00:00 14.1 0 Calma 5 Sur 0 -- -- 93
2019-06-21 06:00:00 14.3 0 Calma 6 Sur 0 -- -- 93
2019-06-21 05:00:00 14.3 0 Calma 5 Noroeste 0 -- -- 93
2019-06-21 04:00:00 14.8 0 Calma 6 Este 0 -- -- 91
2019-06-21 03:00:00 14.8 0 Calma 5 Oeste 0 -- -- 92
2019-06-21 02:00:00 15.3 2 Nordeste 8 Sudeste 0 -- -- 93
2019-06-21 01:00:00 15.8 0 Calma 4 Nordeste 0 -- -- 94
2019-06-21 00:00:00 15.9 2 Nordeste 6 Este 0 -- -- 95
2019-06-20 23:00:00 16.1 0 Calma 5 Noroeste 0 -- -- 93
2019-06-20 22:00:00 16.6 0 Calma 7 Sudoeste 0 -- -- 90
2019-06-20 21:00:00 17.8 3 Sudoeste 9 Norte 0 -- -- 86
2019-06-20 20:00:00 18.7 3 Nordeste 8 Este 0 -- -- 82
2019-06-20 19:00:00 18.6 3 Oeste 10 Norte 0 -- -- 83
2019-06-20 18:00:00 17.7 3 Nordeste 11 Oeste 0 -- -- 89
2019-06-20 17:00:00 17.9 3 Noroeste 12 Oeste 0 -- -- 84
2019-06-20 16:00:00 19 3 Norte 19 Sudeste 0 -- -- 79
2019-06-20 15:00:00 18.5 4 Noroeste 13 Sudeste 0 -- -- 80
2019-06-20 14:00:00 18.9 6 Noroeste 21 Nordeste 0 -- -- 76
2019-06-20 13:00:00 20.3 6 Norte 17 Norte 0 -- -- 71
2019-06-20 12:00:00 18.7 4 Noroeste 9 Noroeste 0 -- -- 76
2019-06-20 11:00:00 18.9 4 Norte 9 Noroeste 0 -- -- 75
2019-06-20 10:00:00 17.8 3 Noroeste 9 Noroeste 0 -- -- 83
2019-06-20 09:00:00 16.6 0 Calma 4 Norte 0 -- -- 84
2019-06-20 08:00:00 14.2 0 Calma 5 Este 0 -- -- 93
2019-06-20 07:00:00 14.3 0 Calma 4 Sur 0 -- -- 93
2019-06-20 06:00:00 14.8 3 Oeste 5 Oeste 0 -- -- 90
2019-06-20 05:00:00 15.3 0 Calma 5 Sur 0 -- -- 94
2019-06-20 04:00:00 15.6 0 Calma 5 Sur 0 -- -- 93
2019-06-20 03:00:00 15.8 0 Calma 5 Sudeste 0 -- -- 94
2019-06-20 02:00:00 15.4 0 Calma 10 Norte 0 -- -- 89
2019-06-20 01:00:00 16.3 3 Sur 7 Sudeste 0 -- -- 91
2019-06-20 00:00:00 16.4 2 Nordeste 9 Sur 0 -- -- 93
2019-06-19 23:00:00 16.5 4 Noroeste 14 Norte 0 -- -- 93
2019-06-19 22:00:00 16.5 12 Norte 15 Norte 0 -- -- 91
2019-06-19 21:00:00 17.8 3 Nordeste 10 Sudoeste 0 -- -- 86
2019-06-19 20:00:00 18.1 5 Sudoeste 15 Oeste 0 -- -- 85
2019-06-19 19:00:00 20.7 6 Noroeste 22 Sudoeste 0 -- -- 71
2019-06-19 18:00:00 21.7 7 Noroeste 20 Sudoeste 0 -- -- 68
2019-06-19 17:00:00 22.6 5 Nordeste 21 Sudoeste 0 -- -- 62
2019-06-19 16:00:00 23.5 6 Norte 18 Sudoeste -- -- -- 57
2019-06-19 15:00:00 22.8 5 Norte 22 Oeste 0 -- -- 55
2019-06-19 14:00:00 22.1 6 Noroeste -- -- -- -- -- 56
2019-06-19 13:00:00 19.5 7 Noroeste 14 Noroeste 0 -- -- 72
2019-06-19 12:00:00 19.4 11 Norte 19 Norte 0 -- -- 71
2019-06-19 11:00:00 17.6 4 Norte 10 Noroeste 0 -- -- 73
2019-06-19 10:00:00 17.8 3 Norte 8 Norte 0 -- -- 72
2019-06-19 09:00:00 17 2 Nordeste 6 Este 0 -- -- 73
2019-06-19 08:00:00 14.9 0 Calma 8 Sudeste 0 -- -- 83
2019-06-19 07:00:00 14.3 4 Nordeste 8 Sudeste 0 -- -- 82
2019-06-19 06:00:00 14.5 3 Este 12 Norte 0 -- -- 84
2019-06-19 05:00:00 14.6 7 Norte 15 Norte 0 -- -- 82
2019-06-19 04:00:00 14.9 8 Nordeste 14 Nordeste 0 -- -- 78
2019-06-19 03:00:00 15.2 7 Norte 13 Nordeste 0 -- -- 74
2019-06-19 02:00:00 15.5 9 Nordeste 14 Norte 0 -- -- 73
2019-06-19 01:00:00 15.4 6 Norte 8 Norte 0 -- -- 77
2019-06-19 00:00:00 15.9 0 Calma 4 Noroeste 0 -- -- 89
2019-06-18 23:00:00 16.6 0 Calma 12 Norte 0 -- -- 89
2019-06-18 22:00:00 16.9 4 Nordeste 11 Norte 0 -- -- 78
2019-06-18 21:00:00 18.2 10 Norte 21 Norte 0 -- -- 78
2019-06-18 20:00:00 19.2 14 Norte 30 Norte 0 -- -- 77
2019-06-18 19:00:00 20.2 17 Norte 27 Norte 0 -- -- 64
2019-06-18 18:00:00 20.8 19 Noroeste 25 Noroeste 0 -- -- 66
2019-06-18 17:00:00 21.7 13 Norte 23 Norte 0 -- -- 61
2019-06-18 16:00:00 21.5 13 Noroeste 25 Norte 0 -- -- 62
2019-06-18 15:00:00 21.4 12 Norte 25 Noroeste 0 -- -- 66
2019-06-18 14:00:00 20.6 10 Noroeste 24 Noroeste 0 -- -- 66
2019-06-18 13:00:00 20.2 9 Noroeste 19 Noroeste 0 -- -- 75
2019-06-18 12:00:00 19.3 12 Norte 20 Norte 0 -- -- 78
2019-06-18 11:00:00 18 11 Norte 15 Norte 0 -- -- 86
2019-06-18 10:00:00 18.2 5 Nordeste 9 Norte 0 -- -- 87
2019-06-18 09:00:00 19 3 Norte 12 Nordeste 0 -- -- 85
2019-06-18 08:00:00 16.9 10 Nordeste 18 Norte 0 -- -- 89
2019-06-18 07:00:00 16.4 5 Norte 9 Norte 0 -- -- 93
2019-06-18 06:00:00 17.5 9 Nordeste 19 Norte 0 -- -- 83
2019-06-18 05:00:00 16.8 15 Nordeste 24 Norte 0 -- -- 86
2019-06-18 04:00:00 16.6 12 Nordeste 17 Nordeste 0 -- -- 91
2019-06-18 03:00:00 16.2 10 Nordeste 21 Nordeste 0 -- -- 89
2019-06-18 02:00:00 16 15 Nordeste 17 Nordeste 0 -- -- 93
2019-06-18 01:00:00 16.6 0 Calma 13 Nordeste 0 -- -- 87
2019-06-18 00:00:00 16.9 11 Norte 17 Norte 0 -- -- 85
2019-06-17 23:00:00 17.1 4 Sudeste 9 Sudeste 0 -- -- 90
2019-06-17 22:00:00 17.5 0 Calma 13 Norte 0 -- -- 91
2019-06-17 21:00:00 18.4 9 Norte 21 Norte 0 -- -- 86
2019-06-17 20:00:00 20 17 Norte 25 Norte 0 -- -- 76
2019-06-17 19:00:00 20.6 16 Norte 27 Noroeste 0 -- -- 71
2019-06-17 18:00:00 21.4 15 Norte 24 Norte 0 -- -- 60
2019-06-17 17:00:00 21.9 10 Norte 20 Norte 0 -- -- 59
2019-06-17 16:00:00 21.9 11 Norte 22 Norte 0 -- -- 61
2019-06-17 15:00:00 19.9 8 Noroeste 18 Noroeste 0 -- -- 76
2019-06-17 14:00:00 18.3 11 Noroeste 21 Noroeste 0 -- -- 85
2019-06-17 13:00:00 20 7 Noroeste 18 Noroeste 0 -- -- 77
2019-06-17 12:00:00 19.4 9 Noroeste 17 Norte 0 -- -- 74
2019-06-17 11:00:00 19.7 4 Norte 9 Noroeste 0 -- -- 71
2019-06-17 10:00:00 18.2 3 Noroeste 9 Noroeste 0 -- -- 73
2019-06-17 09:00:00 16.7 0 Calma 9 Norte 0 -- -- 78
2019-06-17 08:00:00 15 8 Norte 16 Norte 0 -- -- 85
2019-06-17 07:00:00 14.7 8 Norte 15 Nordeste 0 -- -- 77
2019-06-17 06:00:00 13.8 3 Sur 9 Sur 0 -- -- 80
2019-06-17 05:00:00 13.5 2 Noroeste 6 Noroeste 0 -- -- 87
2019-06-17 04:00:00 14.3 0 Calma 5 Sudeste 0 -- -- 79
2019-06-17 03:00:00 14.8 0 Calma 5 Sudeste 0 -- -- 78
2019-06-17 02:00:00 14.9 4 Sudeste 13 Sudeste 0 -- -- 78
2019-06-17 01:00:00 14.1 3 Sudeste 9 Sudeste 0 -- -- 86
2019-06-17 00:00:00 14.3 0 Calma 11 Sudeste 0 -- -- 84
2019-06-16 23:00:00 14.6 2 Sur 7 Norte 0 -- -- 84
2019-06-16 22:00:00 15.5 5 Norte 8 Sudeste 0 -- -- 79
2019-06-16 21:00:00 18.2 3 Norte 19 Norte 0 -- -- 65
2019-06-16 20:00:00 19.3 8 Norte 20 Norte 0 -- -- 61
2019-06-16 19:00:00 19.5 10 Norte 18 Norte 0 -- -- 61
2019-06-16 18:00:00 20.3 8 Noroeste 19 Noroeste 0 -- -- 65
2019-06-16 17:00:00 19.4 9 Norte 18 Noroeste 0 -- -- 66
2019-06-16 16:00:00 18.4 7 Noroeste 14 Norte 0 -- -- 73
2019-06-16 15:00:00 17.6 4 Norte 15 Oeste 0 -- -- 78
2019-06-16 14:00:00 17.5 6 Norte 14 Noroeste 0 -- -- 80
2019-06-16 13:00:00 16.8 4 Norte 11 Noroeste 0 -- -- 84
2019-06-16 12:00:00 16.1 4 Noroeste 9 Noroeste 0 -- -- 84
2019-06-16 11:00:00 16.2 3 Noroeste 11 Noroeste 0 -- -- 85
2019-06-16 10:00:00 16.1 2 Norte 5 Nordeste 0 -- -- 80
2019-06-16 09:00:00 15 0 Calma 5 Norte 0 -- -- 84
2019-06-16 08:00:00 13.4 3 Norte 9 Nordeste 0 -- -- 92
2019-06-16 07:00:00 12.9 6 Norte 10 Norte 0 -- -- 94
2019-06-16 06:00:00 12.7 6 Nordeste 11 Nordeste 0 -- -- 93
2019-06-16 05:00:00 12.2 4 Nordeste 10 Norte 0 -- -- 91
2019-06-16 04:00:00 12.4 8 Norte 9 Norte 0 -- -- 93
2019-06-16 03:00:00 12.6 0 Calma 10 Sudeste 0 -- -- 89
2019-06-16 02:00:00 12.7 2 Sur 5 Sudeste 0 -- -- 94
2019-06-16 01:00:00 13 0 Calma 6 Norte 0 -- -- 91
2019-06-16 00:00:00 13 4 Nordeste 12 Nordeste 0 -- -- 88
2019-06-15 23:00:00 13.5 9 Norte 19 Norte 0 -- -- 90
2019-06-15 22:00:00 14.1 13 Norte 23 Norte 0 -- -- 89
2019-06-15 21:00:00 15.6 16 Norte 28 Norte 0 -- -- 81
2019-06-15 20:00:00 16.6 18 Norte 27 Norte 0 -- -- 62
2019-06-15 19:00:00 18.7 17 Norte 24 Noroeste 0 -- -- 61
2019-06-15 18:00:00 16.4 13 Norte 25 Norte 0 -- -- 74
2019-06-15 17:00:00 16.9 8 Norte 22 Norte 0 -- -- 71
2019-06-15 16:00:00 15.9 8 Norte 15 Norte 0 -- -- 77
2019-06-15 15:00:00 15.4 9 Norte 18 Norte 0 -- -- 83
2019-06-15 14:00:00 15.9 6 Noroeste 11 Noroeste 0 -- -- 80
2019-06-15 13:00:00 14.8 10 Noroeste 18 Noroeste 0 -- -- 80
2019-06-15 12:00:00 15.5 6 Norte 14 Noroeste 0 -- -- 79
2019-06-15 11:00:00 17.1 5 Norte 9 Norte 0 -- -- 76
2019-06-15 10:00:00 15.6 4 Norte 9 Norte 0 -- -- 83
2019-06-15 09:00:00 15.2 5 Norte 11 Norte 0 -- -- 84
2019-06-15 08:00:00 12.9 2 Este 10 Nordeste 0 -- -- 88
2019-06-15 07:00:00 12.3 6 Norte 12 Norte 0 -- -- 83
2019-06-15 06:00:00 12.2 0 Calma 11 Sudeste 0 -- -- 79
2019-06-15 05:00:00 12.5 3 Este 6 Sudoeste 0 -- -- 82
2019-06-15 04:00:00 12.3 3 Nordeste 12 Nordeste 0 -- -- 81
2019-06-15 03:00:00 12.5 0 Calma 5 Norte 0 -- -- 86
2019-06-15 02:00:00 12.7 3 Norte 5 Nordeste 0 -- -- 83
2019-06-15 01:00:00 12.8 0 Calma 9 Sudeste 0 -- -- 81
2019-06-15 00:00:00 13 5 Nordeste 10 Nordeste 0 -- -- 78
2019-06-14 23:00:00 14.2 0 Calma 4 Oeste 0 -- -- 83
2019-06-14 22:00:00 14.3 3 Noroeste 8 Norte 0 -- -- 82
2019-06-14 21:00:00 14.8 4 Norte 10 Noroeste 0 -- -- 84
2019-06-14 20:00:00 15.5 4 Noroeste 9 Noroeste 0 -- -- 81
2019-06-14 19:00:00 15.5 5 Noroeste 10 Noroeste 0 -- -- 76
2019-06-14 18:00:00 15.5 4 Norte 12 Noroeste 0 -- -- 75
2019-06-14 17:00:00 15.2 8 Noroeste 13 Norte 0 -- -- 74
2019-06-14 16:00:00 15.2 3 Noroeste 10 Norte 0 -- -- 78
2019-06-14 15:00:00 15 4 Noroeste 13 Noroeste 0 -- -- 79
2019-06-14 14:00:00 15 7 Noroeste 14 Noroeste 0 -- -- 83
2019-06-14 13:00:00 15 7 Noroeste 12 Noroeste 0 -- -- 84
2019-06-14 12:00:00 15 5 Noroeste 14 Noroeste 0 -- -- 83
2019-06-14 11:00:00 15 3 Noroeste 14 Oeste 0 -- -- 85
2019-06-14 10:00:00 16.3 7 Noroeste 22 Noroeste 0 -- -- 80
2019-06-14 09:00:00 14.1 2 Nordeste 8 Norte 0 -- -- 85
2019-06-14 08:00:00 13.1 2 Noroeste 8 Norte 0 -- -- 90
2019-06-14 07:00:00 12.9 3 Noroeste 7 Noroeste 0 -- -- 88
2019-06-14 06:00:00 12.9 0 Calma 5 Nordeste 0 -- -- 85
2019-06-14 05:00:00 12.8 0 Calma 9 Oeste 0 -- -- 82
2019-06-14 04:00:00 13.2 5 Nordeste 8 Nordeste 0 -- -- 84
2019-06-14 03:00:00 13.2 2 Norte 15 Sudeste 0 -- -- 83
2019-06-14 02:00:00 13.2 3 Nordeste 12 Nordeste 0 -- -- 84
2019-06-14 01:00:00 13.3 0 Calma 6 Norte 0 -- -- 85
2019-06-14 00:00:00 13.6 0 Calma 14 Nordeste 0 -- -- 86
2019-06-13 23:00:00 13.6 4 Este 10 Sudeste 0 -- -- 89
2019-06-13 22:00:00 13.9 3 Este 10 Sudeste 0 -- -- 89
2019-06-13 21:00:00 14.6 2 Norte 11 Sudeste 0 -- -- 92
2019-06-13 20:00:00 14.4 4 Norte 9 Sur 0.2 -- -- 93
2019-06-13 19:00:00 14.3 3 Norte 10 Norte 0.6 -- -- 95
2019-06-13 18:00:00 14.5 4 Noroeste 14 Sudeste 0.4 -- -- 92
2019-06-13 17:00:00 15.2 4 Noroeste 17 Norte 0 -- -- 85
2019-06-13 16:00:00 15.6 5 Nordeste 14 Noroeste 0 -- -- 80
2019-06-13 15:00:00 16.4 4 Noroeste 14 Norte 0 -- -- 79
2019-06-13 14:00:00 17 5 Noroeste 15 Noroeste 0 -- -- 75
2019-06-13 13:00:00 16.8 4 Oeste 19 Sur 0 -- -- 72
2019-06-13 12:00:00 16.9 4 Norte 11 Noroeste 0 -- -- 73
2019-06-13 11:00:00 16.3 2 Norte 10 Noroeste 0 -- -- 78
2019-06-13 10:00:00 15.5 3 Nordeste 11 Este 0 -- -- 81
2019-06-13 09:00:00 14.2 3 Noroeste 7 Oeste 0 -- -- 78
2019-06-13 08:00:00 13.8 0 Calma 3 Norte 0 -- -- 87
2019-06-13 07:00:00 14 0 Calma 6 Oeste 0 -- -- 86
2019-06-13 06:00:00 14 3 Noroeste 8 Noroeste 0 -- -- 85
2019-06-13 05:00:00 13.9 0 Calma 8 Noroeste 0 -- -- 81
2019-06-13 04:00:00 13.9 3 Noroeste 14 Este 0 -- -- 80
2019-06-13 03:00:00 14.3 0 Calma 6 Nordeste 0 -- -- 91
2019-06-13 02:00:00 14.5 3 Nordeste 9 Noroeste 0 -- -- 92
2019-06-13 01:00:00 14.8 0 Calma 4 Oeste 0 -- -- 90
2019-06-13 00:00:00 14.6 0 Calma 9 Oeste 0 -- -- 88
2019-06-12 23:00:00 14.9 3 Noroeste 10 Oeste 0 -- -- 93
2019-06-12 22:00:00 15.3 0 Calma 5 Noroeste 0 -- -- 92
2019-06-12 21:00:00 15.8 3 Norte 13 Noroeste 0 -- -- 87
2019-06-12 20:00:00 16.6 3 Oeste 9 Sudoeste 0 -- -- 84
2019-06-12 19:00:00 16.7 3 Nordeste 15 Sudeste 0 -- -- 92
2019-06-12 18:00:00 16.3 3 Nordeste 8 Sudeste 0.2 -- -- 95
2019-06-12 17:00:00 16.2 0 Calma 14 Noroeste 0.6 -- -- 96
2019-06-12 16:00:00 15.8 6 Noroeste 16 Oeste 0 -- -- 95
2019-06-12 15:00:00 16.6 10 Noroeste 18 Noroeste 0 -- -- 85
2019-06-12 14:00:00 16.8 3 Norte 12 Noroeste 0 -- -- 84
2019-06-12 13:00:00 18.4 4 Norte 18 Sudoeste 0 -- -- 80
2019-06-12 12:00:00 18.4 3 Norte 15 Noroeste 0 -- -- 82
2019-06-12 11:00:00 16.1 3 Noroeste 23 Norte 0 -- -- 96
2019-06-12 10:00:00 16.3 3 Norte 7 Norte 0 -- -- 92
2019-06-12 09:00:00 15.1 3 Noroeste 7 Noroeste 0 -- -- 95
2019-06-12 08:00:00 14.7 2 Noroeste 7 Nordeste 0 -- -- 98
2019-06-12 07:00:00 14.4 3 Nordeste 14 Nordeste 0 -- -- 96
2019-06-12 06:00:00 14.4 8 Norte 12 Nordeste 0 -- -- 93
2019-06-12 05:00:00 14.6 3 Sudeste 9 Este 0 -- -- 97
2019-06-12 04:00:00 14.8 4 Noroeste 15 Sudoeste 0 -- -- 98
2019-06-12 03:00:00 14.7 5 Norte 14 Sudeste 0 -- -- 95
2019-06-12 02:00:00 15 8 Nordeste 12 Nordeste 0 -- -- 95
2019-06-12 01:00:00 15.4 0 Calma 9 Nordeste 0 -- -- 97
2019-06-12 00:00:00 15.5 0 Calma 12 Nordeste 0.4 -- -- 97
2019-06-11 23:00:00 15.6 5 Noroeste 16 Noroeste 0.2 -- -- 96
2019-06-11 22:00:00 16.1 3 Sudoeste 13 Oeste 0 -- -- 91
2019-06-11 21:00:00 17.2 0 Calma 10 Noroeste 0 -- -- 88
2019-06-11 20:00:00 17.4 2 Noroeste 10 Oeste 0 -- -- 84
2019-06-11 19:00:00 18.1 3 Norte 10 Nordeste 0 -- -- 82
2019-06-11 18:00:00 18.8 5 Noroeste 17 Sudoeste 0 -- -- 81
2019-06-11 17:00:00 20.5 10 Noroeste 22 Oeste 0 -- -- 72
2019-06-11 16:00:00 21.8 6 Noroeste 21 Sur 0 -- -- 63
2019-06-11 15:00:00 20.8 8 Oeste 19 Sudoeste 0 -- -- 62
2019-06-11 14:00:00 19.8 6 Noroeste 18 Noroeste 0 -- -- 66
2019-06-11 13:00:00 19.1 8 Norte 19 Norte 0 -- -- 69
2019-06-11 12:00:00 19.3 9 Noroeste 15 Oeste 0 -- -- 66
2019-06-11 11:00:00 18.8 6 Norte 15 Oeste 0 -- -- 70
2019-06-11 10:00:00 16.9 4 Noroeste 13 Sudoeste 0 -- -- 77
2019-06-11 09:00:00 15.4 2 Nordeste 14 Nordeste 0 -- -- 78
2019-06-11 08:00:00 13.3 4 Norte 13 Norte 0 -- -- 90
2019-06-11 07:00:00 13.2 5 Norte 18 Sudeste 0 -- -- 95
2019-06-11 06:00:00 13.5 5 Noroeste 13 Sudeste 0 -- -- 95
2019-06-11 05:00:00 13.7 10 Nordeste 15 Nordeste 0 -- -- 87
2019-06-11 04:00:00 14.2 3 Noroeste 8 Nordeste 0 -- -- 95
2019-06-11 03:00:00 14.3 4 Norte 9 Nordeste 0 -- -- 95
2019-06-11 02:00:00 14.2 4 Norte 11 Norte 0 -- -- 92
2019-06-11 01:00:00 14.3 2 Norte 8 Noroeste 0 -- -- 90
2019-06-11 00:00:00 14.5 3 Nordeste 8 Oeste 0 -- -- 90
2019-06-10 23:00:00 15.4 0 Calma 12 Sudoeste 0 -- -- 87
2019-06-10 22:00:00 15.7 4 Noroeste 9 Noroeste 0 -- -- 83
2019-06-10 21:00:00 17.9 2 Nordeste 17 Oeste 0 -- -- 75
2019-06-10 20:00:00 19.5 4 Norte 19 Sudoeste 0 -- -- 68
2019-06-10 19:00:00 18.2 6 Sudoeste 23 Noroeste 0 -- -- 73
2019-06-10 18:00:00 20.7 7 Oeste 19 Noroeste 0 -- -- 59
2019-06-10 17:00:00 20.7 5 Oeste 17 Oeste 0 -- -- 61
2019-06-10 16:00:00 20.8 6 Norte 27 Norte 0 -- -- 63
2019-06-10 15:00:00 18.7 19 Norte 30 Norte 0 -- -- 69
2019-06-10 14:00:00 19.7 10 Noroeste 21 Oeste 0 -- -- 62
2019-06-10 13:00:00 21.1 6 Norte 17 Nordeste 0 -- -- 60
2019-06-10 12:00:00 17.1 5 Noroeste 37 Norte 0 -- -- 75
2019-06-10 11:00:00 16.5 24 Norte 33 Nordeste 0 -- -- 75
2019-06-10 10:00:00 17 6 Nordeste 17 Norte 0 -- -- 74
2019-06-10 09:00:00 14.5 7 Norte 30 Nordeste 0 -- -- 82
2019-06-10 08:00:00 12.7 25 Norte 32 Nordeste 0 -- -- 89
2019-06-10 07:00:00 14.1 6 Sudeste 16 Sudeste 0 -- -- 64
2019-06-10 06:00:00 12.5 5 Norte 13 Norte 0 -- -- 94
2019-06-10 05:00:00 12.8 7 Nordeste 31 Nordeste 0 -- -- 89
2019-06-10 04:00:00 12.8 19 Norte 30 Nordeste 0 -- -- 85
2019-06-10 03:00:00 13.2 3 Nordeste 17 Noroeste 0 -- -- 94
2019-06-10 02:00:00 13.8 4 Nordeste 16 Norte 0 -- -- 93
2019-06-10 01:00:00 13.6 13 Norte 23 Nordeste 0 -- -- 93
2019-06-10 00:00:00 13.8 5 Este 14 Sudeste 0 -- -- 90
2019-06-09 23:00:00 14.4 5 Norte 16 Este 0 -- -- 91
2019-06-09 22:00:00 15 4 Norte 14 Norte 0 -- -- 86
2019-06-09 21:00:00 16.9 11 Norte 15 Norte 0 -- -- 77
2019-06-09 20:00:00 19.3 4 Nordeste 17 Este 0 -- -- 70
2019-06-09 19:00:00 18.9 5 Norte 21 Noroeste 0 -- -- 72
2019-06-09 18:00:00 18.6 13 Noroeste 23 Norte 0 -- -- 72
2019-06-09 17:00:00 20.5 5 Norte 16 Nordeste 0 -- -- 59
2019-06-09 16:00:00 21.2 6 Norte 21 Oeste 0 -- -- 56
2019-06-09 15:00:00 19.8 8 Noroeste 34 Norte 0 -- -- 61
2019-06-09 14:00:00 17.6 19 Norte 32 Norte 0 -- -- 68
2019-06-09 13:00:00 18.8 8 Noroeste 18 Sur 0 -- -- 61
2019-06-09 12:00:00 19 7 Nordeste 19 Sudoeste 0 -- -- 64
2019-06-09 11:00:00 17 7 Noroeste 30 Norte 0 -- -- 70
2019-06-09 10:00:00 14.6 19 Norte 29 Norte 0 -- -- 83
2019-06-09 09:00:00 14.1 0 Calma 10 Noroeste 0 -- -- 80
2019-06-09 08:00:00 12.4 5 Noroeste 20 Nordeste 0 -- -- 84
2019-06-09 07:00:00 12.1 4 Norte 11 Este 0 -- -- 84
2019-06-09 06:00:00 12.4 4 Nordeste 19 Nordeste 0 -- -- 82
2019-06-09 05:00:00 12.6 5 Noroeste 13 Nordeste 0 -- -- 83
2019-06-09 04:00:00 12.6 6 Noroeste 20 Nordeste 0 -- -- 83
2019-06-09 03:00:00 13 2 Nordeste 14 Norte 0 -- -- 79
2019-06-09 02:00:00 13.3 14 Norte 23 Norte 0 -- -- 74
2019-06-09 01:00:00 13.2 5 Noroeste 18 Sudoeste 0 -- -- 72
2019-06-09 00:00:00 13.6 0 Calma 10 Norte 0 -- -- 78
2019-06-08 23:00:00 13.9 9 Norte 16 Norte 0 -- -- 76
2019-06-08 22:00:00 14.2 5 Noroeste 20 Sudoeste 0 -- -- 65
2019-06-08 21:00:00 17.2 4 Nordeste 14 Norte 0 -- -- 69
2019-06-08 20:00:00 16.6 2 Noroeste 17 Noroeste 0 -- -- 75
2019-06-08 19:00:00 18.8 12 Norte 19 Norte 0 -- -- 67
2019-06-08 18:00:00 21.7 5 Noroeste 15 Sudoeste 0 -- -- 56
2019-06-08 17:00:00 19.9 5 Noroeste 16 Sudoeste 0 -- -- 70
2019-06-08 16:00:00 19.2 6 Noroeste 18 Noroeste 0 -- -- 76
2019-06-08 15:00:00 18.6 4 Oeste 17 Oeste 0 -- -- 75
2019-06-08 14:00:00 19 4 Noroeste 10 Noroeste 0.2 -- -- 83
2019-06-08 13:00:00 16 5 Noroeste 14 Noroeste 0 -- -- 96
2019-06-08 12:00:00 16.5 5 Noroeste 10 Noroeste 0.2 -- -- 93
2019-06-08 11:00:00 16.6 5 Noroeste 10 Noroeste 0 -- -- 91
2019-06-08 10:00:00 17.5 2 Norte 6 Noroeste 0 -- -- 86
2019-06-08 09:00:00 16.2 2 Oeste 6 Sudoeste 0 -- -- 83
2019-06-08 08:00:00 14.7 2 Este 14 Norte 0 -- -- 88
2019-06-08 07:00:00 14.2 7 Norte 15 Nordeste 0 -- -- 95
2019-06-08 06:00:00 13.9 8 Nordeste 11 Norte 0 -- -- 91
2019-06-08 05:00:00 13.8 0 Calma 4 Noroeste 0 -- -- 92
2019-06-08 04:00:00 14.2 0 Calma 3 Sudeste 0 -- -- 90
2019-06-08 03:00:00 14.3 2 Noroeste 9 Norte 0 -- -- 88
2019-06-08 02:00:00 14.5 5 Norte 8 Norte 0 -- -- 86
2019-06-08 01:00:00 14.6 2 Sudeste 3 Sur 0 -- -- 85
2019-06-08 00:00:00 14.6 0 Calma 4 Sur 0 -- -- 84
2019-06-07 23:00:00 14.9 0 Calma 4 Sudeste 0 -- -- 83
2019-06-07 22:00:00 15.7 0 Calma 9 Sur 0 -- -- 81
2019-06-07 21:00:00 16.1 3 Nordeste 10 Sur 0 -- -- 82
2019-06-07 20:00:00 16.8 3 Norte 10 Noroeste 0 -- -- 79
2019-06-07 19:00:00 16.7 4 Noroeste 8 Noroeste 0 -- -- 78
2019-06-07 18:00:00 16.6 4 Noroeste 14 Noroeste 0 -- -- 78
2019-06-07 17:00:00 17.4 8 Noroeste 15 Noroeste 0 -- -- 75
2019-06-07 16:00:00 16.7 3 Norte 14 Noroeste 0 -- -- 77
2019-06-07 15:00:00 17.6 6 Noroeste 17 Oeste 0 -- -- 74
2019-06-07 14:00:00 17.9 6 Norte 17 Oeste 0 -- -- 69
2019-06-07 13:00:00 18.6 5 Noroeste 15 Noroeste 0 -- -- 68
2019-06-07 12:00:00 17.7 4 Norte 17 Norte 0 -- -- 70
2019-06-07 11:00:00 17.2 5 Noroeste 11 Oeste 0 -- -- 73
2019-06-07 10:00:00 16.5 2 Norte 7 Norte 0 -- -- 77
2019-06-07 09:00:00 14.4 0 Calma 4 Norte 0 -- -- 84
2019-06-07 08:00:00 11.9 0 Calma 3 Oeste 0 -- -- 92
2019-06-07 07:00:00 12 0 Calma 8 Sudeste 0 -- -- 93
2019-06-07 06:00:00 12.2 0 Calma 4 Sudeste 0 -- -- 93
2019-06-07 05:00:00 12.2 3 Norte 5 Noroeste 0 -- -- 92
2019-06-07 04:00:00 12.2 2 Nordeste 5 Este 0 -- -- 91
2019-06-07 03:00:00 12.3 0 Calma 5 Norte 0 -- -- 88
2019-06-07 02:00:00 12.7 0 Calma 5 Nordeste 0 -- -- 88
2019-06-07 01:00:00 13.2 0 Calma 4 Nordeste 0 -- -- 86
2019-06-07 00:00:00 14.1 0 Calma 6 Noroeste 0 -- -- 84
2019-06-06 23:00:00 14.6 0 Calma 7 Oeste 0 -- -- 84
2019-06-06 22:00:00 14.7 0 Calma 12 Sudeste 0 -- -- 81
2019-06-06 21:00:00 15.3 2 Nordeste 9 Noroeste 0 -- -- 80
2019-06-06 20:00:00 15.5 2 Norte 9 Sur 0 -- -- 79
2019-06-06 19:00:00 15.7 2 Oeste 10 Noroeste 0 -- -- 78
2019-06-06 18:00:00 16.3 5 Noroeste 13 Norte 0 -- -- 76
2019-06-06 17:00:00 16.6 5 Oeste 12 Noroeste 0 -- -- 74
2019-06-06 16:00:00 16.5 3 Oeste 13 Oeste 0 -- -- 70
2019-06-06 15:00:00 16.9 5 Noroeste 14 Sudoeste 0 -- -- 72
2019-06-06 14:00:00 16.9 4 Noroeste 12 Noroeste 0 -- -- 72
2019-06-06 13:00:00 16.3 5 Noroeste 21 Noroeste 0 -- -- 74
2019-06-06 12:00:00 16.2 8 Noroeste 20 Noroeste 0 -- -- 71
2019-06-06 11:00:00 16.8 4 Noroeste 10 Noroeste 0 -- -- 68
2019-06-06 10:00:00 15.4 4 Noroeste 9 Norte 0 -- -- 72
2019-06-06 09:00:00 14.4 2 Norte 10 Noroeste 0 -- -- 77
2019-06-06 08:00:00 14.1 4 Norte 8 Nordeste 0 -- -- 82
2019-06-06 07:00:00 14 5 Noroeste 12 Oeste 0 -- -- 81
2019-06-06 06:00:00 14 4 Noroeste 10 Oeste 0 -- -- 77
2019-06-06 05:00:00 14.1 4 Nordeste 12 Nordeste 0 -- -- 76
2019-06-06 04:00:00 13.9 2 Norte 10 Oeste 0 -- -- 81
2019-06-06 03:00:00 13.7 6 Noroeste 16 Oeste 0 -- -- 81
2019-06-06 02:00:00 14.1 4 Noroeste 12 Nordeste 0 -- -- 85
2019-06-06 01:00:00 14.6 10 Norte 15 Norte 0 -- -- 88
2019-06-06 00:00:00 14.8 5 Norte 10 Norte 0 -- -- 93
2019-06-05 23:00:00 15 8 Norte 16 Norte 0 -- -- 94
2019-06-05 22:00:00 15.5 9 Noroeste 11 Noroeste 0 -- -- 91
2019-06-05 21:00:00 16.1 2 Norte 9 Norte 0 -- -- 84
2019-06-05 20:00:00 16.7 2 Nordeste 12 Nordeste 0 -- -- 84
2019-06-05 19:00:00 16.7 4 Noroeste 14 Nordeste 0 -- -- 84
2019-06-05 18:00:00 16.9 4 Nordeste 13 Sur 0 -- -- 81
2019-06-05 17:00:00 17 5 Noroeste 12 Noroeste 0 -- -- 86
2019-06-05 16:00:00 16.1 2 Este 20 Noroeste 1 -- -- 97
2019-06-05 15:00:00 15.9 6 Noroeste 19 Norte 0.2 -- -- 95
2019-06-05 14:00:00 16.6 9 Noroeste 14 Noroeste 0 -- -- 84
2019-06-05 13:00:00 17.7 4 Noroeste 12 Noroeste 0 -- -- 80
2019-06-05 12:00:00 18 3 Noroeste 15 Sudoeste 0 -- -- 80
2019-06-05 11:00:00 17.7 4 Norte 12 Oeste 0 -- -- 82
2019-06-05 10:00:00 18 4 Noroeste 9 Oeste 0 -- -- 81
2019-06-05 09:00:00 16.8 2 Norte 8 Noroeste 0 -- -- 83
2019-06-05 08:00:00 14.9 3 Noroeste 8 Noroeste 0 -- -- 91
2019-06-05 07:00:00 15 3 Nordeste 9 Sur 0 -- -- 92
2019-06-05 06:00:00 14.7 6 Norte 19 Nordeste 0 -- -- 87
2019-06-05 05:00:00 15 3 Este 13 Sudeste 0 -- -- 84
2019-06-05 04:00:00 15.2 5 Norte 12 Norte 0 -- -- 92
2019-06-05 03:00:00 15.6 4 Nordeste 13 Sur 0 -- -- 94
2019-06-05 02:00:00 15.8 7 Norte 10 Norte 0 -- -- 79
2019-06-05 01:00:00 16.8 3 Norte 11 Sudeste 0 -- -- 84
2019-06-05 00:00:00 16.5 3 Este 12 Sudeste 0 -- -- 71
2019-06-04 23:00:00 16.5 5 Sur 14 Norte 0 -- -- 91
2019-06-04 22:00:00 18.4 9 Norte 12 Norte 0 -- -- 77
2019-06-04 21:00:00 21.6 4 Sudeste 12 Este 0 -- -- 53
2019-06-04 20:00:00 23.5 3 Sudeste 25 Oeste 0 -- -- 56
2019-06-04 19:00:00 23.4 7 Noroeste 17 Noroeste 0 -- -- 60
2019-06-04 18:00:00 23.2 9 Noroeste 16 Noroeste 0 -- -- 53
2019-06-04 17:00:00 23.7 4 Este 14 Oeste 0 -- -- 56
2019-06-04 16:00:00 24.2 7 Oeste 17 Oeste 0 -- -- 53
2019-06-04 15:00:00 24.3 9 Noroeste 17 Noroeste 0 -- -- 56
2019-06-04 14:00:00 25.1 9 Noroeste 20 Sudoeste 0 -- -- 47
2019-06-04 13:00:00 24.7 7 Noroeste 12 Noroeste 0 -- -- 48
2019-06-04 12:00:00 24.4 6 Noroeste 12 Noroeste 0 -- -- 43
2019-06-04 11:00:00 24.1 4 Norte 13 Nordeste 0 -- -- 44
2019-06-04 10:00:00 22.4 4 Oeste 11 Sudeste 0 -- -- 43
2019-06-04 09:00:00 22.5 0 Calma 5 Sur 0 -- -- 30
2019-06-04 08:00:00 20.4 2 Nordeste 9 Sur 0 -- -- 33
2019-06-04 07:00:00 20.3 5 Sudeste 10 Este 0 -- -- 37
2019-06-04 06:00:00 19.9 4 Norte 11 Noroeste 0 -- -- 40
2019-06-04 05:00:00 19.8 4 Norte 12 Sudeste 0 -- -- 43
2019-06-04 04:00:00 20.7 2 Nordeste 9 Sudeste 0 -- -- 37
2019-06-04 03:00:00 21.4 6 Sur 12 Sudeste 0 -- -- 38
2019-06-04 02:00:00 21.6 6 Sur 13 Sudeste 0 -- -- 32
2019-06-04 01:00:00 22 7 Noroeste 9 Noroeste 0 -- -- 34
2019-06-04 00:00:00 21.9 5 Norte 10 Norte 0 -- -- 42
2019-06-03 23:00:00 22.5 2 Sudoeste 7 Norte 0 -- -- 40
2019-06-03 22:00:00 22.8 6 Norte 8 Norte 0 -- -- 47
2019-06-03 21:00:00 24 4 Norte 9 Norte 0 -- -- 46
2019-06-03 20:00:00 26.7 4 Noroeste 12 Norte 0 -- -- 37
2019-06-03 19:00:00 28.1 3 Norte 15 Norte 0 -- -- 35
2019-06-03 18:00:00 28.4 5 Norte 14 Norte 0 -- -- 32
2019-06-03 17:00:00 29 6 Norte 14 Noroeste 0 -- -- 33
2019-06-03 16:00:00 29.4 8 Norte 14 Norte 0 -- -- 31
2019-06-03 15:00:00 30.2 8 Norte 15 Noroeste 0 -- -- 28
2019-06-03 14:00:00 29.2 7 Norte 18 Norte 0 -- -- 28
2019-06-03 13:00:00 29.2 10 Norte 19 Norte 0 -- -- 25
2019-06-03 12:00:00 28.5 5 Norte 13 Noroeste 0 -- -- 25
2019-06-03 11:00:00 28.6 6 Norte 11 Norte 0 -- -- 18
2019-06-03 10:00:00 27.8 6 Norte 10 Norte 0 -- -- 19
2019-06-03 09:00:00 25.8 6 Norte 12 Noroeste 0 -- -- 20
2019-06-03 08:00:00 24.9 7 Noroeste 11 Noroeste 0 -- -- 22
2019-06-03 07:00:00 24.1 5 Norte 10 Norte 0 -- -- 22
2019-06-03 06:00:00 23.4 4 Noroeste 10 Nordeste 0 -- -- 24
2019-06-03 05:00:00 23.2 6 Norte 11 Noroeste 0 -- -- 26
2019-06-03 04:00:00 23.4 9 Noroeste 17 Noroeste 0 -- -- 29
2019-06-03 03:00:00 24.4 8 Norte 18 Norte 0 -- -- 26
2019-06-03 02:00:00 24.3 11 Norte 17 Noroeste 0 -- -- 26
2019-06-03 01:00:00 25.7 6 Noroeste 17 Nordeste 0 -- -- 23
2019-06-03 00:00:00 25.6 6 Norte 13 Norte 0 -- -- 23
2019-06-02 23:00:00 26 4 Noroeste 11 Sudoeste 0 -- -- 24
2019-06-02 22:00:00 26.5 4 Nordeste 6 Nordeste 0 -- -- 23
2019-06-02 21:00:00 28 5 Norte 13 Norte 0 -- -- 27
2019-06-02 20:00:00 29.4 6 Norte 14 Norte 0 -- -- 29
2019-06-02 19:00:00 30.7 8 Norte 13 Norte 0 -- -- 19
2019-06-02 18:00:00 31 5 Norte 14 Noroeste 0 -- -- 35
2019-06-02 17:00:00 29.9 8 Norte 15 Noroeste 0 -- -- 32
2019-06-02 16:00:00 30.1 9 Norte 17 Norte 0 -- -- 37
2019-06-02 15:00:00 29.2 10 Norte 24 Norte 0 -- -- 27
2019-06-02 14:00:00 28.3 14 Norte 24 Norte 0 -- -- 25
2019-06-02 13:00:00 27.5 14 Norte 22 Norte 0 -- -- 28
2019-06-02 12:00:00 24.9 14 Norte 24 Norte 0 -- -- 39
2019-06-02 11:00:00 24.1 3 Nordeste 13 Este 0 -- -- 59
2019-06-02 10:00:00 22.6 4 Norte 17 Sudoeste 0 -- -- 51
2019-06-02 09:00:00 23.3 5 Sudeste 31 Sur 0 -- -- 40
2019-06-02 08:00:00 19.6 6 Este 23 Sudeste 0 -- -- 51
2019-06-02 07:00:00 15.8 6 Este 19 Sudeste 0 -- -- 84
2019-06-02 06:00:00 15.5 4 Este 14 Sudeste 0 -- -- 90
2019-06-02 05:00:00 14.9 3 Sudeste 11 Sur 0 -- -- 98
2019-06-02 04:00:00 14.8 3 Oeste 10 Sudeste 0 -- -- 98
2019-06-02 03:00:00 14.7 3 Sur 15 Norte 0 -- -- 97
2019-06-02 02:00:00 15.1 2 Nordeste 14 Norte 0 -- -- 96
2019-06-02 01:00:00 16.2 6 Nordeste 14 Norte 0 -- -- 87
2019-06-02 00:00:00 17.8 3 Este 14 Sudeste 0 -- -- 73
2019-06-01 23:00:00 16.9 4 Nordeste 14 Sudeste 0 -- -- 84
2019-06-01 22:00:00 15.8 4 Nordeste 13 Sudeste 0 -- -- 97
2019-06-01 21:00:00 16.6 3 Este 15 Sur 0 -- -- 92
2019-06-01 20:00:00 18 4 Sur 13 Sudeste 0 -- -- 86
2019-06-01 19:00:00 20.1 3 Nordeste 15 Noroeste 0 -- -- 76
2019-06-01 18:00:00 20 8 Este 16 Sudeste 0 -- -- 77
2019-06-01 17:00:00 19.5 5 Sur 17 Norte 0 -- -- 77
2019-06-01 16:00:00 20.1 4 Oeste 13 Sudoeste 0 -- -- 75
2019-06-01 15:00:00 20.2 5 Noroeste 13 Este 0 -- -- 75
2019-06-01 14:00:00 19.1 3 Norte 10 Este 0 -- -- 79
2019-06-01 13:00:00 18 4 Norte 12 Sudoeste 0 -- -- 82
2019-06-01 12:00:00 18.6 4 Noroeste 14 Oeste 0 -- -- 77
2019-06-01 11:00:00 17 3 Noroeste 18 Sudoeste 0 -- -- 86
2019-06-01 10:00:00 16.8 4 Sur 12 Sur 0 -- -- 84
2019-06-01 09:00:00 21.2 3 Nordeste 13 Norte 0 -- -- 32
2019-06-01 08:00:00 17.8 9 Norte 13 Norte 0 -- -- 49
2019-06-01 07:00:00 17.3 3 Nordeste 11 Norte 0 -- -- 36
2019-06-01 06:00:00 15.1 2 Nordeste 13 Sur 0 -- -- 76
2019-06-01 05:00:00 14.2 4 Este 12 Sudeste 0 -- -- 96
2019-06-01 04:00:00 14.6 3 Nordeste 14 Sur 0 -- -- 97
2019-06-01 03:00:00 14.7 5 Este 13 Sur 0 -- -- 95
2019-06-01 02:00:00 15.7 8 Sudeste 17 Sudeste 0 -- -- 71
2019-06-01 01:00:00 16.5 9 Sudeste 13 Sudeste 0 -- -- 71
2019-06-01 00:00:00 17.9 3 Este 12 Sur 0 -- -- 54
2019-05-31 23:00:00 16 5 Sudeste 8 Sudeste 0 -- -- 90
2019-05-31 22:00:00 16.7 0 Calma 6 Norte 0 -- -- 87
2019-05-31 21:00:00 18.6 3 Norte 11 Sudeste 0 -- -- 79
2019-05-31 20:00:00 21 4 Nordeste 10 Noroeste 0 -- -- 71
2019-05-31 19:00:00 20.8 7 Norte 16 Noroeste 0 -- -- 72
2019-05-31 18:00:00 20.2 4 Sur 16 Sudeste 0 -- -- 72
2019-05-31 17:00:00 19.6 5 Sur 18 Sur 0 -- -- 73
2019-05-31 16:00:00 21.6 4 Norte 18 Oeste 0 -- -- 65
2019-05-31 15:00:00 21.3 5 Norte 12 Este 0 -- -- 67
2019-05-31 14:00:00 21 5 Noroeste 11 Sudoeste 0 -- -- 65
2019-05-31 13:00:00 20.9 5 Nordeste 11 Nordeste 0 -- -- 66
2019-05-31 12:00:00 18.3 7 Oeste 15 Oeste 0 -- -- 75
2019-05-31 11:00:00 17.9 4 Norte 11 Sur 0 -- -- 76
2019-05-31 10:00:00 15.5 3 Noroeste 10 Sudeste 0 -- -- 85
2019-05-31 09:00:00 14.1 0 Calma 6 Sudoeste 0 -- -- 92
2019-05-31 08:00:00 13.4 2 Norte 8 Oeste 0 -- -- 95
2019-05-31 07:00:00 13.5 0 Calma 14 Nordeste 0 -- -- 96
2019-05-31 06:00:00 13.3 2 Norte 13 Nordeste 0 -- -- 95
2019-05-31 05:00:00 13.6 3 Sudoeste 8 Sudeste 0 -- -- 96
2019-05-31 04:00:00 13.7 3 Oeste 12 Sur 0 -- -- 96
2019-05-31 03:00:00 13.9 2 Oeste 6 Oeste 0 -- -- 94
2019-05-31 02:00:00 14.1 0 Calma 9 Sudoeste 0 -- -- 93
2019-05-31 01:00:00 14.5 0 Calma 9 Sudoeste 0 -- -- 93
2019-05-31 00:00:00 14.7 0 Calma 9 Sudoeste 0 -- -- 93
2019-05-30 23:00:00 14.8 3 Nordeste 11 Sudeste 0 -- -- 93
2019-05-30 22:00:00 15.2 4 Sudoeste 12 Sudeste 0 -- -- 90
2019-05-30 21:00:00 15.7 3 Oeste 13 Sudeste 0 -- -- 88
2019-05-30 20:00:00 16.8 3 Nordeste 14 Sur 0 -- -- 82
2019-05-30 19:00:00 17.7 5 Sudoeste 14 Sudoeste 0 -- -- 78
2019-05-30 18:00:00 18 5 Sur 14 Sudoeste 0 -- -- 76
2019-05-30 17:00:00 20.9 6 Noroeste 19 Noroeste 0 -- -- 65
2019-05-30 16:00:00 20.3 7 Norte 26 Noroeste 0 -- -- 67
2019-05-30 15:00:00 20.6 6 Norte 19 Norte 0 -- -- 67
2019-05-30 14:00:00 19.6 7 Noroeste 18 Oeste 0 -- -- 69
2019-05-30 13:00:00 19.8 4 Norte 12 Noroeste 0 -- -- 69
2019-05-30 12:00:00 18.2 5 Noroeste 15 Oeste 0 -- -- 74
2019-05-30 11:00:00 17.2 3 Noroeste 8 Noroeste 0 -- -- 77
2019-05-30 10:00:00 16 3 Nordeste 9 Norte 0 -- -- 81
2019-05-30 09:00:00 13.9 3 Nordeste 8 Noroeste 0 -- -- 91
2019-05-30 08:00:00 12.7 2 Sudoeste 8 Sur 0 -- -- 94
2019-05-30 07:00:00 13 2 Oeste 4 Norte 0 -- -- 94
2019-05-30 06:00:00 13.1 4 Oeste 10 Sudoeste 0 -- -- 95
2019-05-30 05:00:00 13.4 2 Nordeste 10 Sudoeste 0 -- -- 94
2019-05-30 04:00:00 13.7 2 Nordeste 8 Nordeste 0 -- -- 94
2019-05-30 03:00:00 13.4 3 Este 13 Nordeste 0 -- -- 93
2019-05-30 02:00:00 13.5 7 Nordeste 12 Nordeste 0 -- -- 94
2019-05-30 01:00:00 13.6 3 Norte 10 Sudeste 0 -- -- 93
2019-05-30 00:00:00 14.2 4 Oeste 13 Sudoeste 0 -- -- 95
2019-05-29 23:00:00 14.2 4 Este 13 Sur 0 -- -- 95
2019-05-29 22:00:00 14.7 0 Calma 5 Este 0 -- -- 90
2019-05-29 21:00:00 15.5 2 Norte 11 Oeste 0 -- -- 87
2019-05-29 20:00:00 17.3 3 Este 17 Noroeste 0 -- -- 79
2019-05-29 19:00:00 19.2 7 Noroeste 15 Noroeste 0 -- -- 72
2019-05-29 18:00:00 17.8 6 Sur 15 Oeste 0 -- -- 74
2019-05-29 17:00:00 19.3 5 Sudoeste 17 Sudeste 0 -- -- 68
2019-05-29 16:00:00 20.4 6 Noroeste 17 Sudoeste 0 -- -- 64
2019-05-29 15:00:00 20.7 5 Norte 18 Norte 0 -- -- 65
2019-05-29 14:00:00 17.6 7 Noroeste 14 Noroeste 0 -- -- 78
2019-05-29 13:00:00 17 5 Noroeste 18 Noroeste 0 -- -- 83
2019-05-29 12:00:00 15.9 13 Norte 20 Noroeste 0 -- -- 87
2019-05-29 11:00:00 16.2 8 Norte 13 Norte 0 -- -- 84
2019-05-29 10:00:00 15.7 3 Norte 13 Sudoeste 0 -- -- 87
2019-05-29 09:00:00 14 4 Norte 17 Noroeste 0 -- -- 95
2019-05-29 08:00:00 13 7 Norte 22 Sudeste 0 -- -- 97
2019-05-29 07:00:00 12.9 3 Norte 22 Nordeste 0 -- -- 97
2019-05-29 06:00:00 13.1 17 Norte 23 Norte 0 -- -- 97
2019-05-29 05:00:00 13.1 12 Norte 16 Norte 0 -- -- 96
2019-05-29 04:00:00 13.8 4 Sudeste 14 Sudeste 0 -- -- 96
2019-05-29 03:00:00 13.7 4 Este 19 Noroeste 0 -- -- 92
2019-05-29 02:00:00 14.5 7 Norte 13 Nordeste 0 -- -- 91
2019-05-29 01:00:00 14.5 9 Norte 23 Norte 0 -- -- 95
2019-05-29 00:00:00 14.7 15 Norte 20 Nordeste 0 -- -- 94
2019-05-28 23:00:00 14.9 10 Norte 13 Norte 0 -- -- 92
2019-05-28 22:00:00 16.4 0 Calma 9 Sudeste 0 -- -- 84
2019-05-28 21:00:00 19.7 3 Norte 21 Sudeste 0 -- -- 70
2019-05-28 20:00:00 18.7 14 Sudeste 22 Sudeste 0 -- -- 75
2019-05-28 19:00:00 21.8 3 Oeste 15 Norte 0 -- -- 61
2019-05-28 18:00:00 21.5 11 Norte 18 Norte 0 -- -- 62
2019-05-28 17:00:00 20.7 12 Norte 23 Nordeste 0 -- -- 67
2019-05-28 16:00:00 19.5 6 Sur 20 Sudeste 0 -- -- 72
2019-05-28 15:00:00 21.9 4 Sudoeste 21 Sudeste 0 -- -- 62
2019-05-28 14:00:00 21.6 6 Oeste 21 Sudoeste 0 -- -- 64
2019-05-28 13:00:00 21 8 Norte 19 Norte 0 -- -- 69
2019-05-28 12:00:00 19.7 12 Norte 20 Norte 0 -- -- 74
2019-05-28 11:00:00 18.8 3 Nordeste 17 Sudeste 0 -- -- 76
2019-05-28 10:00:00 16.1 8 Sudeste 18 Sur 0 -- -- 88
2019-05-28 09:00:00 19.7 8 Sudeste 12 Este 0 -- -- 63
2019-05-28 08:00:00 19.3 4 Nordeste 14 Nordeste 0 -- -- 34
2019-05-28 07:00:00 18.6 8 Norte 11 Nordeste 0 -- -- 34
2019-05-28 06:00:00 19.1 6 Norte 14 Nordeste 0 -- -- 34
2019-05-28 05:00:00 18.5 4 Norte 8 Norte 0 -- -- 35
2019-05-28 04:00:00 17.6 5 Nordeste 16 Nordeste 0 -- -- 37
2019-05-28 03:00:00 18.8 11 Norte 15 Nordeste 0 -- -- 34
2019-05-28 02:00:00 17.5 5 Norte 10 Nordeste 0 -- -- 44
2019-05-28 01:00:00 17.8 2 Norte 9 Nordeste 0 -- -- 44
2019-05-28 00:00:00 17.9 10 Norte 14 Norte 0 -- -- 45
2019-05-27 23:00:00 18.3 9 Norte 13 Norte 0 -- -- 43
2019-05-27 22:00:00 19.6 5 Norte 9 Noroeste 0 -- -- 45
2019-05-27 21:00:00 22.2 3 Noroeste 10 Noroeste 0 -- -- 46
2019-05-27 20:00:00 23.9 5 Norte 17 Norte 0 -- -- 35
2019-05-27 19:00:00 23.6 14 Norte 21 Norte 0 -- -- 36
2019-05-27 18:00:00 23.3 13 Norte 19 Noroeste 0 -- -- 31
2019-05-27 17:00:00 22.6 10 Noroeste 18 Norte 0 -- -- 58
2019-05-27 16:00:00 22.4 8 Norte 16 Noroeste 0 -- -- 58
2019-05-27 15:00:00 22.1 8 Noroeste 17 Noroeste 0 -- -- 58
2019-05-27 14:00:00 23 6 Norte 14 Noroeste 0 -- -- 52
2019-05-27 13:00:00 21.5 4 Este 13 Este 0 -- -- 67
2019-05-27 12:00:00 21.1 3 Norte 13 Noroeste 0 -- -- 64
2019-05-27 11:00:00 20.3 10 Norte 15 Norte 0 -- -- 50
2019-05-27 10:00:00 18.1 6 Norte 10 Norte 0 -- -- 62
2019-05-27 09:00:00 17.8 4 Norte 8 Sudeste 0 -- -- 39
2019-05-27 08:00:00 17.2 3 Este 12 Sudeste 0 -- -- 42
2019-05-27 07:00:00 16.7 4 Sudeste 11 Sudeste 0 -- -- 46
2019-05-27 06:00:00 15.9 5 Sudeste 20 Norte 0 -- -- 54
2019-05-27 05:00:00 15.4 17 Nordeste 20 Nordeste 0 -- -- 63
2019-05-27 04:00:00 14.4 12 Norte 15 Nordeste 0 -- -- 65
2019-05-27 03:00:00 15.6 7 Norte 12 Norte 0 -- -- 63
2019-05-27 02:00:00 15.7 5 Sudeste 8 Sur 0 -- -- 76
2019-05-27 01:00:00 15.6 4 Norte 10 Nordeste 0 -- -- 62
2019-05-27 00:00:00 14.1 9 Norte 23 Norte 0 -- -- 96